Time;durP1;ratioP1;P1;durP2;ratioP2;P2;SDS_P1;SDS_P2;PMS_P1;PMS_P2;Temp;Humidity;BMP_temperature;BMP_pressure;BME280_temperature;BME280_humidity;BME280_pressure;Samples;Min_cycle;Max_cycle;Signal;HPM_P1;HPM_P2
2022/04/30 00:00:34;;;;;;;5.20;4.05;;;;;;;12.59;64.07;99296.00;4071334;29;20215;-65
2022/04/30 00:02:35;;;;;;;5.90;5.38;;;;;;;12.47;64.53;99289.69;4075051;29;20726;-63
2022/04/30 00:04:40;;;;;;;7.13;6.43;;;;;;;12.51;64.20;99290.03;4081190;28;20207;-63
2022/04/30 00:06:42;;;;;;;6.07;5.05;;;;;;;12.50;64.14;99286.44;4066239;29;20220;-64
2022/04/30 00:08:44;;;;;;;7.65;6.53;;;;;;;12.51;64.27;99290.03;4068707;29;20341;-64
2022/04/30 00:10:46;;;;;;;7.80;5.82;;;;;;;12.57;64.30;99284.41;4070898;29;20386;-63
2022/04/30 00:12:47;;;;;;;8.50;6.00;;;;;;;12.52;64.34;99294.44;4074050;29;20208;-63
2022/04/30 00:14:49;;;;;;;6.68;6.07;;;;;;;12.52;64.04;99287.06;4068184;29;20216;-64
2022/04/30 00:16:51;;;;;;;6.32;5.38;;;;;;;12.51;64.21;99284.56;4070174;29;20233;-64
2022/04/30 00:18:52;;;;;;;7.00;5.95;;;;;;;12.50;64.20;99289.19;4070990;29;20208;-63
2022/04/30 00:20:55;;;;;;;6.00;5.32;;;;;;;12.51;64.40;99282.63;4070442;29;20216;-64
2022/04/30 00:22:57;;;;;;;6.95;6.25;;;;;;;12.33;65.09;99282.81;4066598;29;20772;-64
2022/04/30 00:24:59;;;;;;;6.00;5.47;;;;;;;12.39;64.60;99289.22;4057733;29;20216;-64
2022/04/30 00:27:01;;;;;;;7.63;6.93;;;;;;;12.39;64.89;99287.34;4068960;29;20242;-64
2022/04/30 00:29:03;;;;;;;7.50;5.07;;;;;;;12.48;64.88;99291.34;4069899;29;20696;-63
2022/04/30 00:31:04;;;;;;;6.65;5.65;;;;;;;12.36;64.95;99279.56;4070492;29;20574;-64
2022/04/30 00:33:09;;;;;;;5.30;4.80;;;;;;;12.39;65.16;99281.84;4081657;28;20222;-64
2022/04/30 00:35:10;;;;;;;6.20;5.70;;;;;;;12.37;65.24;99283.16;4069012;29;20242;-64
2022/04/30 00:37:12;;;;;;;5.97;5.43;;;;;;;12.28;65.43;99285.44;4068287;29;20243;-64
2022/04/30 00:39:13;;;;;;;5.93;5.35;;;;;;;12.35;65.33;99280.66;4069541;29;20716;-64
2022/04/30 00:41:15;;;;;;;5.95;5.43;;;;;;;12.27;65.15;99277.44;4068314;29;20215;-64
2022/04/30 00:43:16;;;;;;;6.80;6.13;;;;;;;12.29;65.32;99278.03;4072484;29;20414;-64
2022/04/30 00:45:19;;;;;;;7.95;6.00;;;;;;;12.23;65.56;99279.84;4067996;29;20228;-64
2022/04/30 00:47:20;;;;;;;9.25;5.97;;;;;;;12.24;65.15;99277.94;4070818;29;20208;-64
2022/04/30 00:49:22;;;;;;;6.63;5.40;;;;;;;12.23;65.17;99276.28;4067811;29;20212;-64
2022/04/30 00:51:26;;;;;;;6.85;6.13;;;;;;;12.21;65.77;99273.78;4070622;29;20216;-64
2022/04/30 00:53:28;;;;;;;5.80;5.28;;;;;;;12.21;65.35;99276.50;4068543;29;20764;-64
2022/04/30 00:55:31;;;;;;;7.68;6.95;;;;;;;12.19;65.62;99267.69;4082724;28;20608;-64
2022/04/30 00:57:33;;;;;;;6.13;5.22;;;;;;;12.16;65.71;99262.69;4068211;29;20783;-64
2022/04/30 00:59:39;;;;;;;6.03;5.25;;;;;;;12.16;66.16;99275.59;4066897;29;20258;-64
2022/04/30 01:01:40;;;;;;;5.80;5.30;;;;;;;12.12;66.05;99269.72;4062447;29;20304;-64
2022/04/30 01:03:42;;;;;;;7.70;6.03;;;;;;;12.10;66.49;99266.38;4067076;29;20215;-64
2022/04/30 01:05:44;;;;;;;5.60;5.10;;;;;;;12.07;66.54;99261.41;4052052;29;20253;-64
2022/04/30 01:07:47;;;;;;;10.98;7.18;;;;;;;12.07;66.61;99258.66;4067779;29;20359;-64
2022/04/30 01:09:51;;;;;;;6.10;5.50;;;;;;;12.06;66.47;99259.72;4069168;29;20216;-64
2022/04/30 01:11:59;;;;;;;7.55;6.85;;;;;;;12.07;66.61;99255.06;4059071;29;20208;-64
2022/04/30 01:14:01;;;;;;;7.70;5.47;;;;;;;12.06;66.67;99259.72;4071334;29;20370;-64
2022/04/30 01:16:04;;;;;;;5.10;3.88;;;;;;;12.03;66.85;99249.22;4066935;29;20230;-64
2022/04/30 01:18:07;;;;;;;6.25;5.65;;;;;;;12.08;66.35;99245.75;4070334;29;20208;-64
2022/04/30 01:20:10;;;;;;;6.28;5.63;;;;;;;12.02;67.35;99244.81;4071816;29;20208;-64
2022/04/30 01:22:30;;;;;;;7.28;6.65;;;;;;;11.99;67.10;99242.56;4068922;29;20208;-64
2022/04/30 01:24:32;;;;;;;5.90;5.03;;;;;;;12.00;67.12;99244.22;4084742;28;20214;-64
2022/04/30 01:26:33;;;;;;;6.30;5.70;;;;;;;11.99;66.70;99242.56;4070344;29;20228;-64
2022/04/30 01:28:37;;;;;;;7.82;5.50;;;;;;;12.00;66.77;99235.16;4066630;29;20213;-64
2022/04/30 01:30:38;;;;;;;7.78;6.18;;;;;;;11.95;67.18;99235.88;4069254;29;20203;-64
2022/04/30 01:37:23;;;;;;;6.80;6.20;;;;;;;11.85;67.34;99224.69;4069597;29;20208;-64
2022/04/30 01:39:24;;;;;;;7.85;6.55;;;;;;;11.80;67.12;99221.84;4070779;29;20219;-63
2022/04/30 01:41:26;;;;;;;7.75;6.90;;;;;;;11.85;67.20;99219.19;4070760;29;20672;-64
2022/04/30 01:43:28;;;;;;;7.03;6.38;;;;;;;11.75;67.44;99213.50;4070312;29;20302;-64
2022/04/30 01:45:30;;;;;;;6.22;5.10;;;;;;;11.73;67.31;99212.91;4067350;29;20315;-64
2022/04/30 01:47:34;;;;;;;6.25;5.63;;;;;;;11.61;67.26;99217.56;4066656;29;20224;-65
2022/04/30 01:49:35;;;;;;;7.15;6.47;;;;;;;11.59;67.60;99214.25;4069647;29;20214;-64
2022/04/30 01:51:38;;;;;;;5.90;5.35;;;;;;;11.62;67.41;99213.75;4061471;29;20613;-65
2022/04/30 01:53:41;;;;;;;7.10;6.45;;;;;;;11.58;67.53;99206.25;4062422;29;20214;-64
2022/04/30 01:55:43;;;;;;;5.45;4.95;;;;;;;11.57;67.36;99210.84;4064599;29;20323;-64
2022/04/30 01:57:45;;;;;;;6.63;6.03;;;;;;;11.52;67.49;99208.00;4064033;29;21134;-64
2022/04/30 01:59:47;;;;;;;6.85;6.28;;;;;;;11.53;67.34;99201.47;4049722;29;20219;-64
2022/04/30 02:01:49;;;;;;;7.10;4.57;;;;;;;11.49;67.71;99205.75;4063093;29;20217;-65
2022/04/30 02:03:51;;;;;;;6.43;5.43;;;;;;;11.48;67.25;99206.81;4063438;29;20629;-65
2022/04/30 02:05:53;;;;;;;5.28;4.78;;;;;;;11.54;67.35;99194.91;4060607;29;20379;-65
2022/04/30 02:08:06;;;;;;;6.32;5.70;;;;;;;11.47;67.55;99194.19;4064098;29;20308;-65
2022/04/30 02:10:10;;;;;;;6.47;5.93;;;;;;;11.21;67.88;99189.19;4063532;29;20204;-65
2022/04/30 02:12:12;;;;;;;8.95;6.35;;;;;;;11.08;68.80;99189.41;4063135;29;20208;-65
2022/04/30 02:14:14;;;;;;;7.13;4.80;;;;;;;10.97;68.69;99181.19;4063663;29;20256;-65
2022/04/30 02:16:16;;;;;;;8.55;6.32;;;;;;;10.91;68.96;99182.13;4061099;29;20359;-64
2022/04/30 02:18:18;;;;;;;6.13;5.53;;;;;;;10.93;68.59;99180.84;4064724;29;21037;-63
2022/04/30 02:20:31;;;;;;;7.72;5.38;;;;;;;10.98;68.55;99183.69;4064493;29;20243;-66
2022/04/30 02:22:38;;;;;;;5.35;4.78;;;;;;;10.93;68.57;99178.09;4062694;29;20211;-66
2022/04/30 02:24:40;;;;;;;5.78;5.20;;;;;;;10.74;69.08;99172.13;4059954;29;20230;-63
2022/04/30 02:26:43;;;;;;;6.63;6.03;;;;;;;10.75;69.03;99176.50;4063627;29;20229;-66
2022/04/30 02:28:44;;;;;;;6.20;5.38;;;;;;;10.74;68.98;99174.84;4079537;28;20211;-64
2022/04/30 02:30:47;;;;;;;6.28;5.68;;;;;;;10.83;68.92;99172.34;4065583;29;20220;-66
2022/04/30 02:32:50;;;;;;;6.82;5.88;;;;;;;10.82;68.65;99173.44;4065176;29;20315;-66
2022/04/30 02:34:52;;;;;;;9.70;6.57;;;;;;;10.78;68.84;99172.22;4064018;29;20242;-66
2022/04/30 02:36:53;;;;;;;7.18;6.05;;;;;;;10.87;68.71;99169.97;4067896;29;20207;-65
2022/04/30 02:38:56;;;;;;;6.72;6.13;;;;;;;10.88;68.94;99166.16;4066987;29;20327;-66
2022/04/30 02:40:58;;;;;;;6.70;6.10;;;;;;;10.73;69.23;99167.69;4065549;29;20303;-65
2022/04/30 02:43:15;;;;;;;8.40;6.15;;;;;;;10.79;69.11;99162.94;4066059;29;20208;-65
2022/04/30 02:45:18;;;;;;;6.30;5.70;;;;;;;10.79;69.09;99167.59;4063088;29;20246;-66
2022/04/30 02:47:21;;;;;;;8.57;5.68;;;;;;;10.79;69.16;99159.38;4072863;29;20227;-65
2022/04/30 02:49:22;;;;;;;7.28;5.75;;;;;;;10.82;68.71;99159.75;4065752;29;20598;-65
2022/04/30 02:51:24;;;;;;;8.43;5.75;;;;;;;10.61;68.89;99158.63;4066060;29;20222;-65
2022/04/30 02:53:26;;;;;;;10.52;6.93;;;;;;;10.72;68.78;99155.91;4064955;29;20201;-65
2022/04/30 02:55:27;;;;;;;6.68;5.82;;;;;;;10.71;68.81;99157.00;4064377;29;20238;-64
2022/04/30 02:57:39;;;;;;;5.97;5.38;;;;;;;10.68;68.93;99159.38;4065473;29;20209;-64
2022/04/30 02:59:55;;;;;;;4.80;4.30;;;;;;;10.69;68.50;99161.03;4065763;29;20650;-64
2022/04/30 03:01:57;;;;;;;5.38;4.97;;;;;;;10.77;68.13;99154.13;4052264;29;20226;-64
2022/04/30 03:04:02;;;;;;;5.00;4.60;;;;;;;10.84;67.83;99159.50;4077553;29;20220;-64
2022/04/30 03:06:05;;;;;;;6.10;5.55;;;;;;;10.85;67.21;99155.69;4076814;29;20291;-64
2022/04/30 03:08:15;;;;;;;8.88;5.47;;;;;;;10.80;67.43;99152.81;4072243;29;20250;-65
2022/04/30 03:10:17;;;;;;;3.95;3.65;;;;;;;10.81;67.39;99153.69;4074551;29;20307;-65
2022/04/30 03:12:18;;;;;;;5.95;5.35;;;;;;;10.85;67.08;99156.50;4076865;29;20228;-65
2022/04/30 03:14:20;;;;;;;9.73;4.82;;;;;;;10.87;67.03;99158.22;4073681;29;21163;-65
2022/04/30 03:23:25;;;;;;;5.30;4.82;;;;;;;10.90;67.48;99153.91;4089292;29;20212;-64
2022/04/30 03:25:26;;;;;;;4.28;3.95;;;;;;;10.87;67.29;99150.00;4080236;29;20268;-64
2022/04/30 03:27:28;;;;;;;5.32;4.70;;;;;;;10.83;67.44;99150.44;4069408;29;20236;-66
2022/04/30 03:29:30;;;;;;;5.45;5.00;;;;;;;10.82;67.41;99152.59;4057967;29;20217;-64
2022/04/30 03:31:32;;;;;;;4.78;4.03;;;;;;;10.79;67.16;99148.44;4069491;29;20216;-66
2022/04/30 03:33:34;;;;;;;5.97;5.25;;;;;;;10.78;67.26;99144.84;4071154;29;20216;-65
2022/04/30 03:35:39;;;;;;;3.83;3.45;;;;;;;10.77;67.22;99144.25;4070484;29;20698;-64
2022/04/30 03:37:41;;;;;;;5.15;4.57;;;;;;;10.78;67.18;99147.56;4059352;29;20266;-64
2022/04/30 03:39:42;;;;;;;5.00;4.47;;;;;;;10.78;67.48;99153.06;4069558;29;20588;-65
2022/04/30 03:41:44;;;;;;;5.90;5.03;;;;;;;10.75;67.61;99149.13;4071869;29;20655;-65
2022/04/30 03:43:46;;;;;;;4.10;3.70;;;;;;;10.75;67.51;99149.13;4073300;29;20728;-65
2022/04/30 03:45:49;;;;;;;5.57;5.03;;;;;;;10.76;68.02;99148.06;4070170;29;20248;-64
2022/04/30 03:47:50;;;;;;;5.97;5.25;;;;;;;10.74;67.61;99145.56;4054463;29;20241;-65
2022/04/30 03:49:52;;;;;;;5.47;5.00;;;;;;;10.74;67.76;99142.00;4068192;29;20204;-64
2022/04/30 03:51:54;;;;;;;5.35;4.85;;;;;;;10.72;68.04;99149.59;4065381;29;20296;-65
2022/04/30 03:53:56;;;;;;;4.38;3.95;;;;;;;10.73;67.97;99151.25;4065772;29;20216;-66
2022/04/30 03:55:58;;;;;;;5.50;4.90;;;;;;;10.72;67.91;99144.13;4066285;29;20231;-64
2022/04/30 03:57:59;;;;;;;4.35;3.95;;;;;;;10.69;67.75;99144.59;4065649;29;20684;-64
2022/04/30 04:00:04;;;;;;;5.60;4.43;;;;;;;10.69;67.88;99148.16;4061929;29;20648;-66
2022/04/30 04:02:06;;;;;;;4.75;4.20;;;;;;;10.64;68.26;99148.06;4064527;29;20212;-65
2022/04/30 04:04:08;;;;;;;3.95;3.33;;;;;;;10.63;67.84;99157.34;4061734;29;20220;-66
2022/04/30 04:06:10;;;;;;;9.23;4.82;;;;;;;10.62;68.28;99155.63;4067682;29;20366;-66
2022/04/30 04:08:14;;;;;;;5.25;4.70;;;;;;;10.56;68.31;99153.84;4070211;29;20217;-65
2022/04/30 04:10:15;;;;;;;4.50;4.10;;;;;;;10.59;68.31;99155.28;4071955;29;20236;-64
2022/04/30 04:12:17;;;;;;;4.22;3.83;;;;;;;10.57;68.43;99157.41;4069194;29;20749;-67
2022/04/30 04:19:13;;;;;;;4.65;3.95;;;;;;;10.50;68.51;99163.00;4069386;29;20215;-65
2022/04/30 04:21:14;;;;;;;5.53;5.03;;;;;;;10.51;68.76;99158.34;4067504;29;20236;-65
2022/04/30 04:23:16;;;;;;;3.55;3.25;;;;;;;10.50;68.35;99163.00;4066834;29;21041;-65
2022/04/30 04:27:38;;;;;;;3.63;3.17;;;;;;;10.53;69.03;99161.69;4071763;29;20303;-66
2022/04/30 04:29:39;;;;;;;4.97;4.47;;;;;;;10.54;68.56;99163.38;4067305;29;20219;-67
2022/04/30 04:31:43;;;;;;;5.40;3.92;;;;;;;10.55;68.62;99162.31;4066631;29;20204;-66
2022/04/30 04:33:44;;;;;;;4.55;3.90;;;;;;;10.55;68.70;99167.78;4070361;29;20212;-66
2022/04/30 04:35:46;;;;;;;5.15;4.75;;;;;;;10.55;68.52;99170.50;4070555;29;20247;-66
2022/04/30 04:37:48;;;;;;;5.43;4.95;;;;;;;10.56;68.58;99173.00;4069720;29;20208;-65
2022/04/30 04:39:49;;;;;;;4.57;4.00;;;;;;;10.59;68.33;99182.63;4070126;29;20215;-67
2022/04/30 04:41:51;;;;;;;4.72;4.22;;;;;;;10.60;68.23;99173.34;4068761;29;20550;-65
2022/04/30 04:43:52;;;;;;;3.55;3.25;;;;;;;10.60;68.21;99173.34;4072879;29;20553;-67
2022/04/30 04:45:54;;;;;;;4.53;3.75;;;;;;;10.60;68.15;99174.22;4070380;29;20602;-67
2022/04/30 04:47:56;;;;;;;4.20;3.80;;;;;;;10.66;67.89;99172.44;4064980;29;20299;-67
2022/04/30 04:49:57;;;;;;;3.95;3.53;;;;;;;10.62;68.12;99172.06;4070035;29;20212;-67
2022/04/30 04:52:02;;;;;;;5.93;5.07;;;;;;;10.62;68.26;99166.59;4067951;29;20213;-66
2022/04/30 04:54:03;;;;;;;4.55;3.63;;;;;;;10.65;67.92;99176.22;4074047;29;20212;-66
2022/04/30 04:56:06;;;;;;;4.47;4.07;;;;;;;10.65;67.95;99178.97;4070308;29;20231;-66
2022/04/30 04:58:07;;;;;;;4.32;3.95;;;;;;;10.63;68.03;99183.84;4069531;29;20296;-67
2022/04/30 05:00:10;;;;;;;5.00;3.72;;;;;;;10.64;67.94;99180.03;4071158;29;20331;-66
2022/04/30 05:02:11;;;;;;;5.45;4.95;;;;;;;10.67;67.84;99185.06;4069915;29;20212;-67
2022/04/30 05:04:13;;;;;;;4.03;3.63;;;;;;;10.68;67.81;99181.25;4069471;29;20233;-67
2022/04/30 05:06:15;;;;;;;4.53;4.13;;;;;;;10.70;67.59;99190.06;4070429;29;20315;-67
2022/04/30 05:08:16;;;;;;;4.65;4.25;;;;;;;10.74;67.57;99185.78;4073279;29;20224;-67
2022/04/30 05:10:18;;;;;;;5.60;4.40;;;;;;;10.75;67.91;99187.47;4071924;29;20201;-66
2022/04/30 05:12:20;;;;;;;4.10;3.70;;;;;;;10.74;67.80;99191.28;4073880;29;20212;-67
2022/04/30 05:14:21;;;;;;;5.40;4.90;;;;;;;10.75;67.80;99192.94;4068586;29;20284;-65
2022/04/30 05:16:23;;;;;;;3.83;3.50;;;;;;;10.77;67.56;99204.47;4072564;29;20271;-67
2022/04/30 05:18:25;;;;;;;5.15;4.07;;;;;;;10.76;67.50;99200.06;4067827;29;20596;-65
2022/04/30 05:20:27;;;;;;;4.05;3.67;;;;;;;10.75;67.51;99203.88;4070228;29;20204;-65
2022/04/30 05:22:43;;;;;;;3.15;2.85;;;;;;;10.75;67.50;99198.41;4068255;29;20254;-65
2022/04/30 05:24:45;;;;;;;4.43;4.03;;;;;;;10.76;67.75;99200.06;4068822;29;20677;-66
2022/04/30 05:26:48;;;;;;;4.97;3.47;;;;;;;10.77;67.73;99203.41;4068046;29;20208;-66
2022/04/30 05:28:50;;;;;;;3.95;3.53;;;;;;;10.78;67.79;99210.53;4065893;29;20216;-64
2022/04/30 05:30:51;;;;;;;8.02;3.35;;;;;;;10.78;67.76;99210.53;4068217;29;20319;-65
2022/04/30 05:32:53;;;;;;;4.85;4.38;;;;;;;10.77;67.99;99209.97;4072603;29;20244;-65
2022/04/30 05:34:54;;;;;;;3.70;3.40;;;;;;;10.78;67.84;99207.81;4067824;29;20844;-66
2022/04/30 05:36:56;;;;;;;4.60;4.07;;;;;;;10.75;68.52;99207.44;4072065;29;20212;-65
2022/04/30 05:38:59;;;;;;;4.45;4.05;;;;;;;10.76;68.31;99209.09;4071873;29;20216;-67
2022/04/30 05:41:01;;;;;;;5.25;3.35;;;;;;;10.76;68.60;99211.84;4072500;29;20236;-65
2022/04/30 05:43:04;;;;;;;4.25;3.90;;;;;;;10.79;68.63;99223.16;4068251;29;20299;-67
2022/04/30 05:45:06;;;;;;;4.30;3.88;;;;;;;10.64;69.95;99212.88;4082812;28;20239;-65
2022/04/30 05:47:08;;;;;;;5.00;4.60;;;;;;;10.67;69.67;99217.91;4068408;28;20244;-66
2022/04/30 05:49:09;;;;;;;3.83;3.53;;;;;;;10.71;69.46;99213.63;4069493;29;20212;-66
2022/04/30 05:51:11;;;;;;;4.38;3.97;;;;;;;10.71;69.31;99213.63;4066533;29;20208;-65
2022/04/30 05:53:12;;;;;;;4.38;3.95;;;;;;;10.70;69.40;99217.44;4068966;29;20580;-66
2022/04/30 05:55:14;;;;;;;5.43;4.90;;;;;;;10.72;69.58;99220.75;4070250;29;20232;-64
2022/04/30 05:57:16;;;;;;;4.55;4.07;;;;;;;10.78;69.34;99217.94;4065449;29;20208;-65
2022/04/30 05:59:18;;;;;;;5.28;4.45;;;;;;;10.75;69.45;99220.31;4069100;29;20239;-66
2022/04/30 06:01:19;;;;;;;5.00;4.32;;;;;;;10.51;70.49;99215.81;4068836;29;20222;-64
2022/04/30 06:03:21;;;;;;;11.70;4.82;;;;;;;10.57;70.04;99223.94;4067760;28;21872;-65
2022/04/30 06:05:23;;;;;;;5.85;4.80;;;;;;;10.63;69.75;99231.22;4071841;29;20231;-65
2022/04/30 06:07:24;;;;;;;7.25;6.57;;;;;;;10.62;70.06;99220.50;4071711;29;20228;-66
2022/04/30 06:09:26;;;;;;;9.90;5.32;;;;;;;10.65;69.95;99225.50;4072793;29;20611;-66
2022/04/30 06:11:28;;;;;;;5.57;5.07;;;;;;;10.77;69.75;99219.84;4071712;29;20218;-65
2022/04/30 06:13:29;;;;;;;5.07;4.63;;;;;;;10.76;69.80;99227.44;4071634;29;20216;-65
2022/04/30 06:15:31;;;;;;;4.82;4.38;;;;;;;10.78;69.45;99231.63;4056645;29;20229;-64
2022/04/30 06:17:33;;;;;;;5.88;4.65;;;;;;;10.78;69.81;99229.72;4070798;29;20215;-66
2022/04/30 06:19:35;;;;;;;5.32;4.90;;;;;;;10.76;69.77;99233.75;4073265;29;20217;-65
2022/04/30 06:21:36;;;;;;;8.38;6.43;;;;;;;10.77;69.83;99240.91;4071965;29;20300;-65
2022/04/30 06:23:38;;;;;;;6.25;5.65;;;;;;;10.71;70.55;99235.53;4072707;29;20208;-66
2022/04/30 06:25:40;;;;;;;6.80;6.10;;;;;;;10.85;70.01;99244.13;4072670;28;20240;-66
2022/04/30 06:27:41;;;;;;;5.68;5.10;;;;;;;10.85;69.77;99233.19;4075351;29;20739;-65
2022/04/30 06:29:44;;;;;;;5.38;4.93;;;;;;;10.82;70.39;99244.59;4072780;29;20753;-65
2022/04/30 06:31:45;;;;;;;6.43;5.75;;;;;;;10.79;70.37;99242.31;4066726;29;20217;-64
2022/04/30 06:33:47;;;;;;;5.28;4.75;;;;;;;10.83;70.02;99235.31;4070487;29;20216;-64
2022/04/30 06:35:48;;;;;;;6.72;5.85;;;;;;;10.89;69.78;99249.97;4069298;29;20242;-64
2022/04/30 06:37:50;;;;;;;4.95;4.50;;;;;;;10.92;69.79;99244.84;4066388;29;20216;-64
2022/04/30 06:39:52;;;;;;;10.02;6.07;;;;;;;10.94;69.87;99240.00;4071080;29;20243;-64
2022/04/30 06:41:53;;;;;;;6.78;5.97;;;;;;;10.89;70.10;99245.34;4069425;29;20212;-65
2022/04/30 06:43:54;;;;;;;7.20;6.47;;;;;;;10.96;69.83;99251.53;4071520;29;20205;-64
2022/04/30 06:45:56;;;;;;;6.35;5.43;;;;;;;11.01;70.01;99243.47;4071099;29;20235;-65
2022/04/30 06:47:58;;;;;;;6.45;5.85;;;;;;;11.01;69.92;99248.09;4071596;29;20228;-64
2022/04/30 06:50:00;;;;;;;6.57;5.97;;;;;;;11.05;70.44;99250.13;4070125;29;20210;-64
2022/04/30 06:52:02;;;;;;;6.80;6.13;;;;;;;11.00;70.68;99260.97;4082916;28;20215;-63
2022/04/30 06:58:50;;;;;;;7.13;6.43;;;;;;;11.05;70.34;99250.13;4068531;29;20298;-64
2022/04/30 07:02:56;;;;;;;8.98;6.50;;;;;;;11.17;69.53;99261.13;4069240;29;20223;-66
2022/04/30 07:04:59;;;;;;;6.40;5.80;;;;;;;11.10;70.19;99253.00;4073702;29;20208;-65
2022/04/30 07:07:01;;;;;;;9.13;6.13;;;;;;;11.09;69.85;99259.56;4073118;29;20995;-64
2022/04/30 07:09:05;;;;;;;5.85;5.25;;;;;;;11.09;69.33;99265.03;4077564;29;20228;-66
2022/04/30 07:11:06;;;;;;;6.28;5.35;;;;;;;11.08;69.46;99266.09;4058675;29;20217;-65
2022/04/30 07:13:08;;;;;;;8.77;7.95;;;;;;;11.08;69.64;99259.78;4070681;29;20209;-65
2022/04/30 07:15:11;;;;;;;8.93;6.03;;;;;;;11.09;69.13;99262.28;4068820;29;20263;-71
2022/04/30 07:17:13;;;;;;;6.65;6.07;;;;;;;11.01;69.83;99264.53;4067825;29;20648;-64
2022/04/30 07:19:15;;;;;;;6.80;6.25;;;;;;;11.14;69.05;99264.31;4070290;29;20200;-66
2022/04/30 07:21:17;;;;;;;7.85;6.70;;;;;;;11.14;69.09;99267.91;4071552;29;20215;-66
2022/04/30 07:23:18;;;;;;;6.95;6.38;;;;;;;11.18;68.80;99266.34;4074256;29;20226;-66
2022/04/30 07:25:20;;;;;;;6.95;6.32;;;;;;;11.14;69.16;99265.19;4065999;29;20702;-64
2022/04/30 07:27:21;;;;;;;6.82;6.20;;;;;;;11.07;69.41;99258.97;4067118;29;20275;-65
2022/04/30 07:29:23;;;;;;;53.33;7.80;;;;;;;11.20;68.51;99266.97;4070504;29;20224;-65
2022/04/30 07:31:25;;;;;;;8.23;7.15;;;;;;;11.09;69.17;99267.78;4053171;29;20732;-65
2022/04/30 07:33:26;;;;;;;5.90;5.38;;;;;;;11.10;68.80;99265.88;4070866;29;20214;-65
2022/04/30 07:35:34;;;;;;;7.75;7.00;;;;;;;11.07;69.24;99269.06;4071069;29;20249;-65
2022/04/30 07:37:36;;;;;;;8.27;7.50;;;;;;;11.11;69.22;99271.09;4068394;29;20219;-65
2022/04/30 07:39:38;;;;;;;8.38;7.63;;;;;;;11.10;69.22;99269.44;4071003;29;21060;-65
2022/04/30 07:41:39;;;;;;;8.10;7.32;;;;;;;11.05;69.34;99272.03;4067140;29;20213;-65
2022/04/30 07:43:41;;;;;;;7.20;6.50;;;;;;;11.03;69.16;99274.19;4068320;29;20214;-65
2022/04/30 07:45:43;;;;;;;8.30;6.60;;;;;;;11.00;69.25;99274.66;4080641;28;20331;-65
2022/04/30 07:47:45;;;;;;;7.53;6.75;;;;;;;10.96;69.47;99278.94;4068417;29;20215;-65
2022/04/30 07:49:48;;;;;;;6.90;6.30;;;;;;;11.05;69.06;99266.56;4069104;29;20215;-65
2022/04/30 07:51:55;;;;;;;8.05;7.32;;;;;;;10.93;69.43;99268.47;4073108;29;20943;-66
2022/04/30 07:53:56;;;;;;;8.27;7.47;;;;;;;10.98;69.50;99273.22;4082423;28;20215;-65
2022/04/30 07:55:58;;;;;;;8.20;7.22;;;;;;;11.01;69.12;99275.50;4067742;29;20667;-66
2022/04/30 07:58:02;;;;;;;8.73;7.93;;;;;;;11.04;68.93;99270.38;4066161;29;20232;-65
2022/04/30 08:00:04;;;;;;;8.20;6.72;;;;;;;10.97;69.33;99269.66;4070494;29;20243;-65
2022/04/30 08:02:06;;;;;;;8.85;8.02;;;;;;;11.04;69.08;99281.34;4082287;28;20724;-65
2022/04/30 08:04:08;;;;;;;7.75;6.95;;;;;;;11.15;68.96;99276.94;4071376;29;20215;-65
2022/04/30 08:06:10;;;;;;;7.40;6.75;;;;;;;11.15;68.64;99282.44;4067707;29;20355;-66
2022/04/30 08:08:11;;;;;;;8.45;7.68;;;;;;;11.07;69.26;99275.41;4052667;29;20312;-66
2022/04/30 08:10:13;;;;;;;9.45;8.55;;;;;;;11.05;69.59;99283.00;4068683;29;20682;-66
2022/04/30 08:12:17;;;;;;;8.93;8.13;;;;;;;10.92;70.31;99282.38;4068585;29;20763;-63
2022/04/30 08:14:19;;;;;;;8.88;8.02;;;;;;;11.06;69.47;99283.84;4066103;29;20296;-66
2022/04/30 08:16:21;;;;;;;8.98;8.27;;;;;;;10.88;70.08;99292.13;4065649;29;20235;-66
2022/04/30 08:18:24;;;;;;;8.70;7.93;;;;;;;10.97;69.85;99291.56;4071016;29;20200;-66
2022/04/30 08:20:26;;;;;;;9.40;8.50;;;;;;;11.00;69.80;99284.78;4071122;29;20749;-66
2022/04/30 08:22:27;;;;;;;10.10;9.20;;;;;;;11.13;70.07;99290.06;4051041;29;20269;-64
2022/04/30 08:24:29;;;;;;;9.60;8.70;;;;;;;11.25;69.81;99294.47;4065627;29;20900;-66
2022/04/30 08:26:31;;;;;;;12.00;8.18;;;;;;;11.32;69.75;99288.91;4065391;29;20327;-65
2022/04/30 08:28:33;;;;;;;9.80;8.43;;;;;;;11.36;69.15;99296.41;4063691;29;20266;-64
2022/04/30 08:30:35;;;;;;;10.23;9.32;;;;;;;11.30;69.63;99291.88;4068618;29;20218;-64
2022/04/30 08:32:36;;;;;;;7.63;6.93;;;;;;;11.42;69.30;99283.66;4071102;29;20208;-64
2022/04/30 08:34:38;;;;;;;8.75;7.93;;;;;;;11.45;69.30;99291.44;4069333;29;20639;-64
2022/04/30 08:36:39;;;;;;;11.15;7.43;;;;;;;11.46;69.10;99285.72;4068707;29;20239;-64
2022/04/30 08:38:41;;;;;;;9.38;8.52;;;;;;;11.48;68.96;99294.53;4071349;29;20803;-64
2022/04/30 08:40:43;;;;;;;9.73;8.88;;;;;;;11.34;69.82;99293.09;4070850;29;20231;-64
2022/04/30 08:42:46;;;;;;;9.18;7.93;;;;;;;11.34;68.89;99293.09;4066727;29;20299;-65
2022/04/30 08:44:47;;;;;;;10.40;9.40;;;;;;;11.40;69.61;99297.63;4071225;29;20204;-64
2022/04/30 08:46:49;;;;;;;8.40;7.65;;;;;;;11.38;69.80;99299.75;4072655;29;20216;-64
2022/04/30 08:48:50;;;;;;;9.88;8.07;;;;;;;11.50;69.33;99297.84;4070387;29;20636;-64
2022/04/30 08:50:53;;;;;;;9.20;8.27;;;;;;;11.57;68.98;99298.56;4069861;29;20711;-64
2022/04/30 08:52:55;;;;;;;8.82;7.90;;;;;;;11.60;69.12;99298.16;4068079;29;20208;-64
2022/04/30 08:54:57;;;;;;;8.05;7.35;;;;;;;11.68;69.04;99297.78;4071081;29;20330;-64
2022/04/30 08:56:58;;;;;;;9.20;6.82;;;;;;;11.74;68.21;99294.09;4073009;29;20238;-64
2022/04/30 08:59:03;;;;;;;9.02;8.20;;;;;;;11.87;67.82;99296.59;4069493;29;20296;-64
2022/04/30 09:01:07;;;;;;;7.68;7.07;;;;;;;11.78;67.60;99300.75;4070293;29;20223;-64
2022/04/30 09:03:13;;;;;;;6.60;5.93;;;;;;;11.80;67.59;99295.88;4071768;29;20228;-64
2022/04/30 09:05:14;;;;;;;8.15;7.35;;;;;;;11.97;67.31;99305.03;4069213;29;20260;-64
2022/04/30 09:07:19;;;;;;;6.85;5.82;;;;;;;11.91;67.64;99300.50;4077361;29;20208;-64
2022/04/30 09:09:23;;;;;;;8.85;7.03;;;;;;;11.93;67.40;99298.38;4068032;29;20232;-64
2022/04/30 09:11:28;;;;;;;8.50;7.70;;;;;;;11.82;66.86;99296.47;4071462;29;20218;-64
2022/04/30 09:13:30;;;;;;;7.55;6.78;;;;;;;11.82;66.77;99293.72;4070299;29;20771;-64
2022/04/30 09:15:31;;;;;;;6.88;5.78;;;;;;;11.83;66.75;99292.66;4070803;29;20228;-65
2022/04/30 09:17:33;;;;;;;6.72;5.93;;;;;;;11.68;66.86;99295.03;4070190;29;20215;-65
2022/04/30 09:19:48;;;;;;;7.43;6.57;;;;;;;11.74;67.29;99294.09;4070153;29;20236;-64
2022/04/30 09:21:50;;;;;;;7.22;6.53;;;;;;;11.76;67.29;99294.69;4068718;29;20421;-63
2022/04/30 09:23:51;;;;;;;8.70;5.82;;;;;;;11.93;66.65;99292.91;4068516;29;20329;-66
2022/04/30 09:25:57;;;;;;;5.88;5.30;;;;;;;12.07;66.00;99296.22;4067937;29;20228;-63
2022/04/30 09:27:59;;;;;;;7.88;7.07;;;;;;;12.12;65.72;99299.91;4072200;29;20212;-66
2022/04/30 09:30:00;;;;;;;5.85;5.35;;;;;;;12.11;65.68;99300.97;4068970;29;20209;-65
2022/04/30 09:32:02;;;;;;;6.90;6.25;;;;;;;12.26;65.82;99295.00;4070060;29;20294;-65
2022/04/30 09:37:41;;;;;;;6.03;5.45;;;;;;;12.38;65.41;99293.06;4067536;29;20209;-65
2022/04/30 09:38:47;;;;;;;8.10;5.45;;;;;;;12.58;64.27;99291.53;4070950;29;20774;-65
2022/04/30 09:40:53;;;;;;;6.22;5.10;;;;;;;12.57;64.56;99283.59;4074678;29;20633;-65
2022/04/30 09:42:54;;;;;;;6.18;5.10;;;;;;;12.61;65.06;99293.81;4073928;29;20219;-65
2022/04/30 09:44:56;;;;;;;6.57;5.60;;;;;;;12.88;64.48;99281.19;4079378;29;20215;-65
2022/04/30 09:46:58;;;;;;;4.47;4.07;;;;;;;12.88;64.26;99286.66;4073661;29;20614;-65
2022/04/30 09:53:56;;;;;;;6.22;5.25;;;;;;;13.03;63.70;99289.72;4073004;29;20211;-65
2022/04/30 09:56:08;;;;;;;6.07;5.50;;;;;;;13.36;62.79;99284.28;4073524;29;20227;-64
2022/04/30 09:58:14;;;;;;;5.90;5.30;;;;;;;13.33;62.86;99279.28;4087845;28;20747;-66
2022/04/30 10:00:16;;;;;;;6.78;5.47;;;;;;;13.47;62.25;99268.78;4073468;29;20212;-63
2022/04/30 10:02:18;;;;;;;5.82;5.18;;;;;;;13.69;62.91;99276.00;4077045;29;20291;-63
2022/04/30 10:04:19;;;;;;;5.55;4.97;;;;;;;13.64;62.00;99267.69;4070960;29;20239;-66
2022/04/30 10:06:21;;;;;;;5.72;5.22;;;;;;;13.69;61.79;99272.44;4073977;29;21696;-65
2022/04/30 10:08:23;;;;;;;5.78;5.18;;;;;;;13.80;61.07;99275.09;4075207;29;20331;-64
2022/04/30 10:10:41;;;;;;;6.35;5.85;;;;;;;13.79;61.03;99272.59;4072701;29;20212;-64